sensor_id;sensor_type;location;lat;lon;timestamp;P1;durP1;ratioP1;P2;durP2;ratioP2
7116;SDS011;3600;48.568;7.870;2024-03-02T00:00:50;5.03;;;3.10;;
7116;SDS011;3600;48.568;7.870;2024-03-02T00:03:18;3.80;;;3.10;;
7116;SDS011;3600;48.568;7.870;2024-03-02T00:05:50;3.10;;;2.80;;
7116;SDS011;3600;48.568;7.870;2024-03-02T00:08:21;3.33;;;3.03;;
7116;SDS011;3600;48.568;7.870;2024-03-02T00:10:57;4.03;;;3.53;;
7116;SDS011;3600;48.568;7.870;2024-03-02T00:13:25;3.37;;;3.07;;
7116;SDS011;3600;48.568;7.870;2024-03-02T00:15:53;3.73;;;3.40;;
7116;SDS011;3600;48.568;7.870;2024-03-02T00:18:34;3.53;;;3.23;;
7116;SDS011;3600;48.568;7.870;2024-03-02T00:21:02;4.30;;;3.80;;
7116;SDS011;3600;48.568;7.870;2024-03-02T00:23:30;3.33;;;3.00;;
7116;SDS011;3600;48.568;7.870;2024-03-02T00:25:57;3.73;;;3.43;;
7116;SDS011;3600;48.568;7.870;2024-03-02T00:28:27;4.20;;;3.13;;
7116;SDS011;3600;48.568;7.870;2024-03-02T00:31:06;3.50;;;3.17;;
7116;SDS011;3600;48.568;7.870;2024-03-02T00:33:47;4.20;;;3.80;;
7116;SDS011;3600;48.568;7.870;2024-03-02T00:36:24;3.73;;;3.27;;
7116;SDS011;3600;48.568;7.870;2024-03-02T00:38:53;4.40;;;3.37;;
7116;SDS011;3600;48.568;7.870;2024-03-02T00:41:27;6.30;;;3.80;;
7116;SDS011;3600;48.568;7.870;2024-03-02T00:46:24;4.83;;;3.80;;
7116;SDS011;3600;48.568;7.870;2024-03-02T00:48:57;4.83;;;3.67;;
7116;SDS011;3600;48.568;7.870;2024-03-02T00:51:27;4.00;;;2.90;;
7116;SDS011;3600;48.568;7.870;2024-03-02T00:53:57;4.03;;;3.53;;
7116;SDS011;3600;48.568;7.870;2024-03-02T00:56:30;5.40;;;3.70;;
7116;SDS011;3600;48.568;7.870;2024-03-02T00:58:58;5.13;;;3.50;;
7116;SDS011;3600;48.568;7.870;2024-03-02T01:01:25;3.20;;;2.90;;
7116;SDS011;3600;48.568;7.870;2024-03-02T01:03:52;3.40;;;3.10;;
7116;SDS011;3600;48.568;7.870;2024-03-02T01:06:19;2.87;;;2.50;;
7116;SDS011;3600;48.568;7.870;2024-03-02T01:08:46;2.87;;;2.63;;
7116;SDS011;3600;48.568;7.870;2024-03-02T01:11:17;2.90;;;2.37;;
7116;SDS011;3600;48.568;7.870;2024-03-02T01:13:45;2.30;;;2.17;;
7116;SDS011;3600;48.568;7.870;2024-03-02T01:16:13;2.23;;;2.13;;
7116;SDS011;3600;48.568;7.870;2024-03-02T01:18:41;2.20;;;2.10;;
7116;SDS011;3600;48.568;7.870;2024-03-02T01:21:09;3.83;;;2.50;;
7116;SDS011;3600;48.568;7.870;2024-03-02T01:23:35;2.17;;;2.07;;
7116;SDS011;3600;48.568;7.870;2024-03-02T01:26:02;1.97;;;1.87;;
7116;SDS011;3600;48.568;7.870;2024-03-02T01:28:29;2.40;;;2.20;;
7116;SDS011;3600;48.568;7.870;2024-03-02T01:30:56;2.20;;;2.00;;
7116;SDS011;3600;48.568;7.870;2024-03-02T01:33:23;2.33;;;2.13;;
7116;SDS011;3600;48.568;7.870;2024-03-02T01:35:50;2.90;;;2.43;;
7116;SDS011;3600;48.568;7.870;2024-03-02T01:38:17;3.17;;;2.33;;
7116;SDS011;3600;48.568;7.870;2024-03-02T01:40:44;2.40;;;2.20;;
7116;SDS011;3600;48.568;7.870;2024-03-02T01:43:11;2.57;;;2.37;;
7116;SDS011;3600;48.568;7.870;2024-03-02T01:45:38;2.60;;;2.40;;
7116;SDS011;3600;48.568;7.870;2024-03-02T01:48:06;2.70;;;2.43;;
7116;SDS011;3600;48.568;7.870;2024-03-02T01:50:34;3.50;;;2.53;;
7116;SDS011;3600;48.568;7.870;2024-03-02T01:53:01;3.63;;;2.30;;
7116;SDS011;3600;48.568;7.870;2024-03-02T01:55:31;4.90;;;2.70;;
7116;SDS011;3600;48.568;7.870;2024-03-02T01:57:59;3.30;;;2.20;;
7116;SDS011;3600;48.568;7.870;2024-03-02T02:00:26;3.47;;;2.43;;
7116;SDS011;3600;48.568;7.870;2024-03-02T02:02:53;2.33;;;2.13;;
7116;SDS011;3600;48.568;7.870;2024-03-02T02:05:21;2.97;;;2.50;;
7116;SDS011;3600;48.568;7.870;2024-03-02T02:07:48;2.63;;;2.43;;
7116;SDS011;3600;48.568;7.870;2024-03-02T02:10:16;3.30;;;2.77;;
7116;SDS011;3600;48.568;7.870;2024-03-02T02:12:43;3.07;;;2.77;;
7116;SDS011;3600;48.568;7.870;2024-03-02T02:15:23;2.70;;;2.50;;
7116;SDS011;3600;48.568;7.870;2024-03-02T02:17:51;2.70;;;2.50;;
7116;SDS011;3600;48.568;7.870;2024-03-02T02:20:18;2.63;;;2.43;;
7116;SDS011;3600;48.568;7.870;2024-03-02T02:22:55;3.20;;;2.73;;
7116;SDS011;3600;48.568;7.870;2024-03-02T02:25:30;3.30;;;2.27;;
7116;SDS011;3600;48.568;7.870;2024-03-02T02:27:57;3.70;;;2.70;;
7116;SDS011;3600;48.568;7.870;2024-03-02T02:30:26;3.77;;;2.90;;
7116;SDS011;3600;48.568;7.870;2024-03-02T02:32:54;2.73;;;2.40;;
7116;SDS011;3600;48.568;7.870;2024-03-02T02:35:21;3.23;;;2.93;;
7116;SDS011;3600;48.568;7.870;2024-03-02T02:37:50;3.47;;;2.97;;
7116;SDS011;3600;48.568;7.870;2024-03-02T02:40:21;3.00;;;2.60;;
7116;SDS011;3600;48.568;7.870;2024-03-02T02:42:48;2.50;;;2.30;;
7116;SDS011;3600;48.568;7.870;2024-03-02T02:45:15;2.40;;;2.20;;
7116;SDS011;3600;48.568;7.870;2024-03-02T02:47:43;2.30;;;2.10;;
7116;SDS011;3600;48.568;7.870;2024-03-02T02:50:11;2.40;;;2.20;;
7116;SDS011;3600;48.568;7.870;2024-03-02T02:52:39;3.20;;;2.17;;
7116;SDS011;3600;48.568;7.870;2024-03-02T02:55:08;2.47;;;2.27;;
7116;SDS011;3600;48.568;7.870;2024-03-02T02:57:37;2.50;;;2.30;;
7116;SDS011;3600;48.568;7.870;2024-03-02T03:00:12;2.20;;;2.00;;
7116;SDS011;3600;48.568;7.870;2024-03-02T03:02:51;2.67;;;2.20;;
7116;SDS011;3600;48.568;7.870;2024-03-02T03:05:18;5.03;;;2.30;;
7116;SDS011;3600;48.568;7.870;2024-03-02T03:07:45;2.67;;;2.30;;
7116;SDS011;3600;48.568;7.870;2024-03-02T03:10:15;2.37;;;2.17;;
7116;SDS011;3600;48.568;7.870;2024-03-02T03:12:42;3.07;;;2.07;;
7116;SDS011;3600;48.568;7.870;2024-03-02T03:15:10;2.67;;;2.47;;
7116;SDS011;3600;48.568;7.870;2024-03-02T03:17:38;2.33;;;2.00;;
7116;SDS011;3600;48.568;7.870;2024-03-02T03:20:06;2.40;;;2.20;;
7116;SDS011;3600;48.568;7.870;2024-03-02T03:22:37;2.30;;;2.10;;
7116;SDS011;3600;48.568;7.870;2024-03-02T03:25:04;3.13;;;2.50;;
7116;SDS011;3600;48.568;7.870;2024-03-02T03:27:31;2.53;;;2.33;;
7116;SDS011;3600;48.568;7.870;2024-03-02T03:29:58;2.33;;;2.03;;
7116;SDS011;3600;48.568;7.870;2024-03-02T03:32:25;2.43;;;2.23;;
7116;SDS011;3600;48.568;7.870;2024-03-02T03:34:53;2.30;;;2.10;;
7116;SDS011;3600;48.568;7.870;2024-03-02T03:37:20;2.50;;;2.30;;
7116;SDS011;3600;48.568;7.870;2024-03-02T03:39:47;2.80;;;2.53;;
7116;SDS011;3600;48.568;7.870;2024-03-02T03:42:14;2.30;;;2.10;;
7116;SDS011;3600;48.568;7.870;2024-03-02T03:44:41;2.30;;;2.07;;
7116;SDS011;3600;48.568;7.870;2024-03-02T03:47:08;2.27;;;2.10;;
7116;SDS011;3600;48.568;7.870;2024-03-02T03:49:35;2.13;;;2.03;;
7116;SDS011;3600;48.568;7.870;2024-03-02T03:52:02;2.70;;;2.50;;
7116;SDS011;3600;48.568;7.870;2024-03-02T03:54:30;2.10;;;1.90;;
7116;SDS011;3600;48.568;7.870;2024-03-02T03:56:57;3.07;;;2.87;;
7116;SDS011;3600;48.568;7.870;2024-03-02T03:59:24;2.50;;;2.30;;
7116;SDS011;3600;48.568;7.870;2024-03-02T04:01:51;2.37;;;2.17;;
7116;SDS011;3600;48.568;7.870;2024-03-02T04:04:19;3.90;;;2.07;;
7116;SDS011;3600;48.568;7.870;2024-03-02T04:06:46;2.13;;;2.03;;
7116;SDS011;3600;48.568;7.870;2024-03-02T04:09:13;2.20;;;2.00;;
7116;SDS011;3600;48.568;7.870;2024-03-02T04:11:40;2.20;;;2.00;;
7116;SDS011;3600;48.568;7.870;2024-03-02T04:14:07;2.97;;;2.20;;
7116;SDS011;3600;48.568;7.870;2024-03-02T04:16:34;2.03;;;1.90;;
7116;SDS011;3600;48.568;7.870;2024-03-02T04:19:01;2.47;;;2.27;;
7116;SDS011;3600;48.568;7.870;2024-03-02T04:21:28;2.50;;;2.30;;
7116;SDS011;3600;48.568;7.870;2024-03-02T04:23:55;2.47;;;2.37;;
7116;SDS011;3600;48.568;7.870;2024-03-02T04:26:25;2.63;;;2.43;;
7116;SDS011;3600;48.568;7.870;2024-03-02T04:28:53;3.40;;;2.80;;
7116;SDS011;3600;48.568;7.870;2024-03-02T04:31:20;3.13;;;2.80;;
7116;SDS011;3600;48.568;7.870;2024-03-02T04:33:47;4.43;;;2.50;;
7116;SDS011;3600;48.568;7.870;2024-03-02T04:36:15;3.00;;;2.80;;
7116;SDS011;3600;48.568;7.870;2024-03-02T04:38:42;2.60;;;2.40;;
7116;SDS011;3600;48.568;7.870;2024-03-02T04:41:09;3.50;;;3.20;;
7116;SDS011;3600;48.568;7.870;2024-03-02T04:43:36;2.90;;;2.70;;
7116;SDS011;3600;48.568;7.870;2024-03-02T04:46:03;2.97;;;2.50;;
7116;SDS011;3600;48.568;7.870;2024-03-02T04:48:30;2.43;;;2.23;;
7116;SDS011;3600;48.568;7.870;2024-03-02T04:50:57;2.70;;;2.50;;
7116;SDS011;3600;48.568;7.870;2024-03-02T04:53:24;3.37;;;2.70;;
7116;SDS011;3600;48.568;7.870;2024-03-02T04:55:51;2.83;;;2.63;;
7116;SDS011;3600;48.568;7.870;2024-03-02T04:58:54;3.00;;;2.70;;
7116;SDS011;3600;48.568;7.870;2024-03-02T05:01:21;2.60;;;2.40;;
7116;SDS011;3600;48.568;7.870;2024-03-02T05:03:48;2.93;;;2.33;;
7116;SDS011;3600;48.568;7.870;2024-03-02T05:06:15;2.70;;;2.50;;
7116;SDS011;3600;48.568;7.870;2024-03-02T05:08:42;2.07;;;1.87;;
7116;SDS011;3600;48.568;7.870;2024-03-02T05:11:11;2.60;;;2.40;;
7116;SDS011;3600;48.568;7.870;2024-03-02T05:13:56;2.20;;;2.10;;
7116;SDS011;3600;48.568;7.870;2024-03-02T05:16:23;2.70;;;2.50;;
7116;SDS011;3600;48.568;7.870;2024-03-02T05:18:50;3.20;;;2.90;;
7116;SDS011;3600;48.568;7.870;2024-03-02T05:21:17;3.87;;;2.80;;
7116;SDS011;3600;48.568;7.870;2024-03-02T05:23:44;3.43;;;3.10;;
7116;SDS011;3600;48.568;7.870;2024-03-02T05:26:10;3.43;;;2.90;;
7116;SDS011;3600;48.568;7.870;2024-03-02T05:28:40;2.70;;;2.50;;
7116;SDS011;3600;48.568;7.870;2024-03-02T05:31:10;3.20;;;2.80;;
7116;SDS011;3600;48.568;7.870;2024-03-02T05:33:38;4.40;;;3.80;;
7116;SDS011;3600;48.568;7.870;2024-03-02T05:36:05;6.77;;;5.93;;
7116;SDS011;3600;48.568;7.870;2024-03-02T05:38:34;6.77;;;6.07;;
7116;SDS011;3600;48.568;7.870;2024-03-02T05:41:01;7.83;;;7.03;;
7116;SDS011;3600;48.568;7.870;2024-03-02T05:43:28;10.03;;;9.03;;
7116;SDS011;3600;48.568;7.870;2024-03-02T05:45:55;6.10;;;5.50;;
7116;SDS011;3600;48.568;7.870;2024-03-02T05:48:22;5.50;;;5.00;;
7116;SDS011;3600;48.568;7.870;2024-03-02T05:50:49;4.37;;;3.97;;
7116;SDS011;3600;48.568;7.870;2024-03-02T05:53:16;6.43;;;4.00;;
7116;SDS011;3600;48.568;7.870;2024-03-02T05:55:43;6.50;;;4.93;;
7116;SDS011;3600;48.568;7.870;2024-03-02T05:58:11;5.30;;;4.40;;
7116;SDS011;3600;48.568;7.870;2024-03-02T06:00:58;7.90;;;5.07;;
7116;SDS011;3600;48.568;7.870;2024-03-02T06:03:26;8.47;;;6.27;;
7116;SDS011;3600;48.568;7.870;2024-03-02T06:05:54;7.30;;;6.17;;
7116;SDS011;3600;48.568;7.870;2024-03-02T06:08:22;7.63;;;6.20;;
7116;SDS011;3600;48.568;7.870;2024-03-02T06:10:49;7.00;;;5.90;;
7116;SDS011;3600;48.568;7.870;2024-03-02T06:13:16;6.27;;;5.23;;
7116;SDS011;3600;48.568;7.870;2024-03-02T06:15:43;6.33;;;5.27;;
7116;SDS011;3600;48.568;7.870;2024-03-02T06:18:10;7.73;;;6.03;;
7116;SDS011;3600;48.568;7.870;2024-03-02T06:20:37;6.70;;;5.97;;
7116;SDS011;3600;48.568;7.870;2024-03-02T06:23:04;7.03;;;5.50;;
7116;SDS011;3600;48.568;7.870;2024-03-02T06:25:31;8.17;;;5.87;;
7116;SDS011;3600;48.568;7.870;2024-03-02T06:27:58;10.23;;;6.70;;
7116;SDS011;3600;48.568;7.870;2024-03-02T06:30:25;6.57;;;5.40;;
7116;SDS011;3600;48.568;7.870;2024-03-02T06:32:52;6.90;;;4.50;;
7116;SDS011;3600;48.568;7.870;2024-03-02T06:35:19;5.50;;;4.87;;
7116;SDS011;3600;48.568;7.870;2024-03-02T06:37:46;6.23;;;5.63;;
7116;SDS011;3600;48.568;7.870;2024-03-02T06:40:13;6.13;;;5.27;;
7116;SDS011;3600;48.568;7.870;2024-03-02T06:42:40;7.20;;;5.57;;
7116;SDS011;3600;48.568;7.870;2024-03-02T06:45:07;5.40;;;4.97;;
7116;SDS011;3600;48.568;7.870;2024-03-02T06:47:34;6.03;;;4.83;;
7116;SDS011;3600;48.568;7.870;2024-03-02T06:50:01;5.60;;;5.00;;
7116;SDS011;3600;48.568;7.870;2024-03-02T06:52:29;5.87;;;5.10;;
7116;SDS011;3600;48.568;7.870;2024-03-02T06:54:57;6.30;;;5.70;;
7116;SDS011;3600;48.568;7.870;2024-03-02T06:57:24;7.23;;;6.53;;
7116;SDS011;3600;48.568;7.870;2024-03-02T06:59:51;6.80;;;5.40;;
7116;SDS011;3600;48.568;7.870;2024-03-02T07:02:21;7.03;;;6.17;;
7116;SDS011;3600;48.568;7.870;2024-03-02T07:04:58;7.83;;;5.67;;
7116;SDS011;3600;48.568;7.870;2024-03-02T07:07:29;7.17;;;6.30;;
7116;SDS011;3600;48.568;7.870;2024-03-02T07:10:09;7.60;;;6.43;;
7116;SDS011;3600;48.568;7.870;2024-03-02T07:12:36;7.63;;;6.83;;
7116;SDS011;3600;48.568;7.870;2024-03-02T07:15:04;8.37;;;6.90;;
7116;SDS011;3600;48.568;7.870;2024-03-02T07:17:31;11.03;;;7.47;;
7116;SDS011;3600;48.568;7.870;2024-03-02T07:19:59;8.70;;;6.87;;
7116;SDS011;3600;48.568;7.870;2024-03-02T07:22:26;8.30;;;7.50;;
7116;SDS011;3600;48.568;7.870;2024-03-02T07:24:53;8.43;;;7.63;;
7116;SDS011;3600;48.568;7.870;2024-03-02T07:27:20;9.43;;;7.70;;
7116;SDS011;3600;48.568;7.870;2024-03-02T07:29:47;10.13;;;7.90;;
7116;SDS011;3600;48.568;7.870;2024-03-02T07:32:14;8.80;;;7.53;;
7116;SDS011;3600;48.568;7.870;2024-03-02T07:34:41;8.73;;;6.90;;
7116;SDS011;3600;48.568;7.870;2024-03-02T07:37:08;9.20;;;6.90;;
7116;SDS011;3600;48.568;7.870;2024-03-02T07:39:36;9.93;;;6.13;;
7116;SDS011;3600;48.568;7.870;2024-03-02T07:42:03;6.57;;;5.57;;
7116;SDS011;3600;48.568;7.870;2024-03-02T07:44:30;6.27;;;5.30;;
7116;SDS011;3600;48.568;7.870;2024-03-02T07:46:58;6.63;;;5.70;;
7116;SDS011;3600;48.568;7.870;2024-03-02T07:49:27;6.20;;;5.60;;
7116;SDS011;3600;48.568;7.870;2024-03-02T07:51:55;7.40;;;4.83;;
7116;SDS011;3600;48.568;7.870;2024-03-02T07:54:22;6.20;;;4.97;;
7116;SDS011;3600;48.568;7.870;2024-03-02T07:56:49;11.13;;;4.93;;
7116;SDS011;3600;48.568;7.870;2024-03-02T07:59:16;4.20;;;3.53;;
7116;SDS011;3600;48.568;7.870;2024-03-02T08:01:43;4.20;;;3.80;;
7116;SDS011;3600;48.568;7.870;2024-03-02T08:07:13;2.77;;;2.53;;
7116;SDS011;3600;48.568;7.870;2024-03-02T08:09:40;3.70;;;3.27;;
7116;SDS011;3600;48.568;7.870;2024-03-02T08:12:07;3.07;;;2.83;;
7116;SDS011;3600;48.568;7.870;2024-03-02T08:14:34;4.20;;;3.80;;
7116;SDS011;3600;48.568;7.870;2024-03-02T08:17:01;4.90;;;4.40;;
7116;SDS011;3600;48.568;7.870;2024-03-02T08:19:28;5.67;;;4.57;;
7116;SDS011;3600;48.568;7.870;2024-03-02T08:21:55;6.43;;;5.17;;
7116;SDS011;3600;48.568;7.870;2024-03-02T08:24:22;6.63;;;4.97;;
7116;SDS011;3600;48.568;7.870;2024-03-02T08:26:49;6.23;;;5.67;;
7116;SDS011;3600;48.568;7.870;2024-03-02T08:29:16;6.70;;;6.00;;
7116;SDS011;3600;48.568;7.870;2024-03-02T08:31:43;7.50;;;5.73;;
7116;SDS011;3600;48.568;7.870;2024-03-02T08:34:10;6.73;;;5.80;;
7116;SDS011;3600;48.568;7.870;2024-03-02T08:36:37;6.83;;;5.67;;
7116;SDS011;3600;48.568;7.870;2024-03-02T08:39:04;8.37;;;5.23;;
7116;SDS011;3600;48.568;7.870;2024-03-02T08:41:34;5.83;;;5.20;;
7116;SDS011;3600;48.568;7.870;2024-03-02T08:44:01;6.63;;;5.07;;
7116;SDS011;3600;48.568;7.870;2024-03-02T08:46:28;6.90;;;5.47;;
7116;SDS011;3600;48.568;7.870;2024-03-02T08:48:55;8.80;;;5.23;;
7116;SDS011;3600;48.568;7.870;2024-03-02T08:51:22;5.93;;;5.10;;
7116;SDS011;3600;48.568;7.870;2024-03-02T08:53:49;5.70;;;5.20;;
7116;SDS011;3600;48.568;7.870;2024-03-02T08:56:18;6.33;;;5.10;;
7116;SDS011;3600;48.568;7.870;2024-03-02T08:58:48;6.10;;;5.37;;
7116;SDS011;3600;48.568;7.870;2024-03-02T09:01:21;6.27;;;4.63;;
7116;SDS011;3600;48.568;7.870;2024-03-02T09:03:52;5.90;;;5.07;;
7116;SDS011;3600;48.568;7.870;2024-03-02T09:06:20;4.90;;;4.50;;
7116;SDS011;3600;48.568;7.870;2024-03-02T09:08:47;5.40;;;4.87;;
7116;SDS011;3600;48.568;7.870;2024-03-02T09:11:15;4.97;;;4.47;;
7116;SDS011;3600;48.568;7.870;2024-03-02T09:13:43;6.87;;;4.83;;
7116;SDS011;3600;48.568;7.870;2024-03-02T09:16:10;7.10;;;5.20;;
7116;SDS011;3600;48.568;7.870;2024-03-02T09:18:39;5.40;;;4.87;;
7116;SDS011;3600;48.568;7.870;2024-03-02T09:21:06;5.60;;;5.00;;
7116;SDS011;3600;48.568;7.870;2024-03-02T09:23:34;6.00;;;4.80;;
7116;SDS011;3600;48.568;7.870;2024-03-02T09:26:01;5.60;;;4.60;;
7116;SDS011;3600;48.568;7.870;2024-03-02T09:28:27;6.13;;;4.80;;
7116;SDS011;3600;48.568;7.870;2024-03-02T09:30:55;5.67;;;5.07;;
7116;SDS011;3600;48.568;7.870;2024-03-02T09:33:26;5.67;;;5.17;;
7116;SDS011;3600;48.568;7.870;2024-03-02T09:35:53;5.93;;;4.93;;
7116;SDS011;3600;48.568;7.870;2024-03-02T09:38:20;5.47;;;4.20;;
7116;SDS011;3600;48.568;7.870;2024-03-02T09:40:50;4.77;;;4.27;;
7116;SDS011;3600;48.568;7.870;2024-03-02T09:43:17;4.67;;;3.93;;
7116;SDS011;3600;48.568;7.870;2024-03-02T09:45:44;4.40;;;4.00;;
7116;SDS011;3600;48.568;7.870;2024-03-02T09:48:11;4.63;;;4.13;;
7116;SDS011;3600;48.568;7.870;2024-03-02T09:50:39;4.40;;;4.00;;
7116;SDS011;3600;48.568;7.870;2024-03-02T09:53:06;4.07;;;3.67;;
7116;SDS011;3600;48.568;7.870;2024-03-02T09:55:34;3.63;;;3.33;;
7116;SDS011;3600;48.568;7.870;2024-03-02T09:58:01;3.47;;;3.23;;
7116;SDS011;3600;48.568;7.870;2024-03-02T10:00:29;4.20;;;3.38;;
7116;SDS011;3600;48.568;7.870;2024-03-02T10:02:56;3.80;;;3.23;;
7116;SDS011;3600;48.568;7.870;2024-03-02T10:05:25;3.63;;;3.30;;
7116;SDS011;3600;48.568;7.870;2024-03-02T10:08:01;3.60;;;3.30;;
7116;SDS011;3600;48.568;7.870;2024-03-02T10:10:38;3.70;;;3.40;;
7116;SDS011;3600;48.568;7.870;2024-03-02T10:13:07;5.13;;;3.10;;
7116;SDS011;3600;48.568;7.870;2024-03-02T10:15:35;3.95;;;2.97;;
7116;SDS011;3600;48.568;7.870;2024-03-02T10:18:19;3.67;;;3.27;;
7116;SDS011;3600;48.568;7.870;2024-03-02T10:20:54;4.05;;;3.63;;
7116;SDS011;3600;48.568;7.870;2024-03-02T10:23:21;3.85;;;3.42;;
7116;SDS011;3600;48.568;7.870;2024-03-02T10:25:48;3.50;;;2.90;;
7116;SDS011;3600;48.568;7.870;2024-03-02T10:28:23;4.70;;;3.22;;
7116;SDS011;3600;48.568;7.870;2024-03-02T10:30:50;3.70;;;2.85;;
7116;SDS011;3600;48.568;7.870;2024-03-02T10:33:19;3.72;;;2.90;;
7116;SDS011;3600;48.568;7.870;2024-03-02T10:35:47;2.80;;;2.60;;
7116;SDS011;3600;48.568;7.870;2024-03-02T10:38:16;3.70;;;2.60;;
7116;SDS011;3600;48.568;7.870;2024-03-02T10:40:46;2.80;;;2.60;;
7116;SDS011;3600;48.568;7.870;2024-03-02T10:43:15;2.40;;;2.20;;
7116;SDS011;3600;48.568;7.870;2024-03-02T10:45:43;4.57;;;2.00;;
7116;SDS011;3600;48.568;7.870;2024-03-02T10:48:12;3.22;;;2.00;;
7116;SDS011;3600;48.568;7.870;2024-03-02T10:50:39;2.20;;;2.00;;
7116;SDS011;3600;48.568;7.870;2024-03-02T10:53:06;2.30;;;2.20;;
7116;SDS011;3600;48.568;7.870;2024-03-02T10:55:33;2.30;;;2.00;;
7116;SDS011;3600;48.568;7.870;2024-03-02T10:58:01;1.80;;;1.70;;
7116;SDS011;3600;48.568;7.870;2024-03-02T11:00:36;2.17;;;1.98;;
7116;SDS011;3600;48.568;7.870;2024-03-02T11:03:05;2.47;;;2.00;;
7116;SDS011;3600;48.568;7.870;2024-03-02T11:05:39;2.95;;;1.80;;
7116;SDS011;3600;48.568;7.870;2024-03-02T11:08:13;2.42;;;1.88;;
7116;SDS011;3600;48.568;7.870;2024-03-02T11:10:48;1.90;;;1.80;;
7116;SDS011;3600;48.568;7.870;2024-03-02T11:13:22;1.77;;;1.67;;
7116;SDS011;3600;48.568;7.870;2024-03-02T11:15:59;1.60;;;1.50;;
7116;SDS011;3600;48.568;7.870;2024-03-02T11:18:36;1.70;;;1.60;;
7116;SDS011;3600;48.568;7.870;2024-03-02T11:21:08;1.80;;;1.25;;
7116;SDS011;3600;48.568;7.870;2024-03-02T11:23:35;1.48;;;1.38;;
7116;SDS011;3600;48.568;7.870;2024-03-02T11:26:18;2.03;;;1.80;;
7116;SDS011;3600;48.568;7.870;2024-03-02T11:28:45;1.77;;;1.67;;
7116;SDS011;3600;48.568;7.870;2024-03-02T11:31:12;2.45;;;1.35;;
7116;SDS011;3600;48.568;7.870;2024-03-02T11:33:40;1.38;;;1.23;;
7116;SDS011;3600;48.568;7.870;2024-03-02T11:36:07;1.70;;;1.42;;
7116;SDS011;3600;48.568;7.870;2024-03-02T11:38:37;1.15;;;1.00;;
7116;SDS011;3600;48.568;7.870;2024-03-02T11:41:06;1.70;;;1.50;;
7116;SDS011;3600;48.568;7.870;2024-03-02T11:43:39;1.08;;;0.98;;
7116;SDS011;3600;48.568;7.870;2024-03-02T11:46:06;2.85;;;1.10;;
7116;SDS011;3600;48.568;7.870;2024-03-02T11:48:35;0.93;;;0.88;;
7116;SDS011;3600;48.568;7.870;2024-03-02T11:51:04;1.08;;;1.08;;
7116;SDS011;3600;48.568;7.870;2024-03-02T11:53:31;1.10;;;1.10;;
7116;SDS011;3600;48.568;7.870;2024-03-02T11:56:02;1.42;;;1.17;;
7116;SDS011;3600;48.568;7.870;2024-03-02T11:58:29;1.20;;;1.10;;
7116;SDS011;3600;48.568;7.870;2024-03-02T12:00:57;0.88;;;0.80;;
7116;SDS011;3600;48.568;7.870;2024-03-02T12:03:25;1.90;;;1.80;;
7116;SDS011;3600;48.568;7.870;2024-03-02T12:05:53;1.63;;;1.15;;
7116;SDS011;3600;48.568;7.870;2024-03-02T12:08:21;1.95;;;1.30;;
7116;SDS011;3600;48.568;7.870;2024-03-02T12:11:00;1.33;;;1.15;;
7116;SDS011;3600;48.568;7.870;2024-03-02T12:13:30;2.03;;;1.40;;
7116;SDS011;3600;48.568;7.870;2024-03-02T12:15:57;1.40;;;1.10;;
7116;SDS011;3600;48.568;7.870;2024-03-02T12:18:25;4.40;;;1.70;;
7116;SDS011;3600;48.568;7.870;2024-03-02T12:20:53;0.93;;;0.90;;
7116;SDS011;3600;48.568;7.870;2024-03-02T12:23:24;3.83;;;2.22;;
7116;SDS011;3600;48.568;7.870;2024-03-02T12:25:51;3.17;;;1.52;;
7116;SDS011;3600;48.568;7.870;2024-03-02T12:28:19;1.77;;;1.25;;
7116;SDS011;3600;48.568;7.870;2024-03-02T12:30:46;2.38;;;1.83;;
7116;SDS011;3600;48.568;7.870;2024-03-02T12:33:14;1.23;;;0.88;;
7116;SDS011;3600;48.568;7.870;2024-03-02T12:35:44;0.80;;;0.80;;
7116;SDS011;3600;48.568;7.870;2024-03-02T12:38:11;1.38;;;1.20;;
7116;SDS011;3600;48.568;7.870;2024-03-02T12:40:38;1.00;;;0.90;;
7116;SDS011;3600;48.568;7.870;2024-03-02T12:43:05;1.83;;;1.00;;
7116;SDS011;3600;48.568;7.870;2024-03-02T12:45:34;0.77;;;0.70;;
7116;SDS011;3600;48.568;7.870;2024-03-02T12:48:01;1.95;;;0.82;;
7116;SDS011;3600;48.568;7.870;2024-03-02T12:50:30;1.40;;;0.80;;
7116;SDS011;3600;48.568;7.870;2024-03-02T12:52:57;0.93;;;0.90;;
7116;SDS011;3600;48.568;7.870;2024-03-02T12:55:24;1.77;;;0.85;;
7116;SDS011;3600;48.568;7.870;2024-03-02T12:57:54;0.60;;;0.60;;
7116;SDS011;3600;48.568;7.870;2024-03-02T13:00:24;1.38;;;0.70;;
7116;SDS011;3600;48.568;7.870;2024-03-02T13:02:51;0.45;;;0.45;;
7116;SDS011;3600;48.568;7.870;2024-03-02T13:05:18;0.75;;;0.60;;
7116;SDS011;3600;48.568;7.870;2024-03-02T13:07:47;0.65;;;0.60;;
7116;SDS011;3600;48.568;7.870;2024-03-02T13:10:15;0.68;;;0.68;;
7116;SDS011;3600;48.568;7.870;2024-03-02T13:12:43;0.63;;;0.63;;
7116;SDS011;3600;48.568;7.870;2024-03-02T13:15:12;0.80;;;0.80;;
7116;SDS011;3600;48.568;7.870;2024-03-02T13:17:44;0.68;;;0.65;;
7116;SDS011;3600;48.568;7.870;2024-03-02T13:20:14;0.77;;;0.70;;
7116;SDS011;3600;48.568;7.870;2024-03-02T13:22:46;1.33;;;1.10;;
7116;SDS011;3600;48.568;7.870;2024-03-02T13:25:13;1.40;;;0.63;;
7116;SDS011;3600;48.568;7.870;2024-03-02T13:27:41;1.52;;;1.30;;
7116;SDS011;3600;48.568;7.870;2024-03-02T13:30:10;0.63;;;0.63;;
7116;SDS011;3600;48.568;7.870;2024-03-02T13:32:40;1.02;;;0.77;;
7116;SDS011;3600;48.568;7.870;2024-03-02T13:35:07;0.93;;;0.70;;
7116;SDS011;3600;48.568;7.870;2024-03-02T13:37:37;0.77;;;0.77;;
7116;SDS011;3600;48.568;7.870;2024-03-02T13:40:08;0.70;;;0.60;;
7116;SDS011;3600;48.568;7.870;2024-03-02T13:42:39;2.65;;;0.70;;
7116;SDS011;3600;48.568;7.870;2024-03-02T13:45:07;0.52;;;0.52;;
7116;SDS011;3600;48.568;7.870;2024-03-02T13:47:34;0.50;;;0.50;;
7116;SDS011;3600;48.568;7.870;2024-03-02T13:50:02;0.47;;;0.47;;
7116;SDS011;3600;48.568;7.870;2024-03-02T13:52:31;0.68;;;0.60;;
7116;SDS011;3600;48.568;7.870;2024-03-02T13:54:58;0.95;;;0.90;;
7116;SDS011;3600;48.568;7.870;2024-03-02T13:57:25;0.63;;;0.60;;
7116;SDS011;3600;48.568;7.870;2024-03-02T13:59:55;0.40;;;0.40;;
7116;SDS011;3600;48.568;7.870;2024-03-02T14:02:22;0.45;;;0.45;;
7116;SDS011;3600;48.568;7.870;2024-03-02T14:04:49;0.50;;;0.43;;
7116;SDS011;3600;48.568;7.870;2024-03-02T14:07:16;0.40;;;0.40;;
7116;SDS011;3600;48.568;7.870;2024-03-02T14:09:43;2.08;;;0.50;;
7116;SDS011;3600;48.568;7.870;2024-03-02T14:12:13;0.45;;;0.45;;
7116;SDS011;3600;48.568;7.870;2024-03-02T14:14:40;0.65;;;0.65;;
7116;SDS011;3600;48.568;7.870;2024-03-02T14:17:08;1.20;;;1.10;;
7116;SDS011;3600;48.568;7.870;2024-03-02T14:19:42;0.60;;;0.60;;
7116;SDS011;3600;48.568;7.870;2024-03-02T14:22:09;0.60;;;0.60;;
7116;SDS011;3600;48.568;7.870;2024-03-02T14:24:52;0.85;;;0.65;;
7116;SDS011;3600;48.568;7.870;2024-03-02T14:27:38;0.85;;;0.70;;
7116;SDS011;3600;48.568;7.870;2024-03-02T14:30:50;3.42;;;0.80;;
7116;SDS011;3600;48.568;7.870;2024-03-02T14:33:29;0.68;;;0.68;;
7116;SDS011;3600;48.568;7.870;2024-03-02T14:36:14;0.55;;;0.55;;
7116;SDS011;3600;48.568;7.870;2024-03-02T14:38:51;7.38;;;1.05;;
7116;SDS011;3600;48.568;7.870;2024-03-02T14:41:30;0.68;;;0.68;;
7116;SDS011;3600;48.568;7.870;2024-03-02T14:44:15;0.82;;;0.57;;
7116;SDS011;3600;48.568;7.870;2024-03-02T14:46:47;0.68;;;0.60;;
7116;SDS011;3600;48.568;7.870;2024-03-02T14:49:25;0.60;;;0.60;;
7116;SDS011;3600;48.568;7.870;2024-03-02T14:52:07;2.08;;;0.73;;
7116;SDS011;3600;48.568;7.870;2024-03-02T14:54:36;0.68;;;0.60;;
7116;SDS011;3600;48.568;7.870;2024-03-02T14:57:04;0.70;;;0.60;;
7116;SDS011;3600;48.568;7.870;2024-03-02T14:59:31;0.73;;;0.55;;
7116;SDS011;3600;48.568;7.870;2024-03-02T15:02:00;0.57;;;0.57;;
7116;SDS011;3600;48.568;7.870;2024-03-02T15:04:29;8.02;;;5.10;;
7116;SDS011;3600;48.568;7.870;2024-03-02T15:06:56;2.72;;;2.08;;
7116;SDS011;3600;48.568;7.870;2024-03-02T15:09:24;2.40;;;2.30;;
7116;SDS011;3600;48.568;7.870;2024-03-02T15:11:51;0.93;;;0.90;;
7116;SDS011;3600;48.568;7.870;2024-03-02T15:14:20;1.50;;;1.40;;
7116;SDS011;3600;48.568;7.870;2024-03-02T15:16:48;3.45;;;3.25;;
7116;SDS011;3600;48.568;7.870;2024-03-02T15:19:15;1.35;;;1.25;;
7116;SDS011;3600;48.568;7.870;2024-03-02T15:21:42;2.97;;;2.60;;
7116;SDS011;3600;48.568;7.870;2024-03-02T15:24:09;1.95;;;1.30;;
7116;SDS011;3600;48.568;7.870;2024-03-02T15:26:39;0.70;;;0.70;;
7116;SDS011;3600;48.568;7.870;2024-03-02T15:29:06;0.60;;;0.50;;
7116;SDS011;3600;48.568;7.870;2024-03-02T15:31:33;1.38;;;1.27;;